createdAt,value
2019-06-13T06:25:23.841Z,60
2019-06-13T06:26:21.700Z,60
2019-06-13T06:27:19.303Z,60
2019-06-13T06:28:19.436Z,60
2019-06-13T06:29:16.871Z,60
2019-06-13T06:30:24.162Z,55
2019-06-13T06:31:19.956Z,55
2019-06-13T06:32:16.084Z,50
2019-06-13T06:33:19.851Z,50
2019-06-13T06:34:19.351Z,50
2019-06-13T06:35:19.641Z,50
2019-06-13T06:36:16.834Z,50
2019-06-13T06:37:19.792Z,50
2019-06-13T06:38:19.445Z,50
2019-06-13T06:39:22.034Z,50
2019-06-13T06:40:16.743Z,50
2019-06-13T06:41:19.118Z,50
2019-06-13T06:42:16.751Z,55
2019-06-13T06:43:19.621Z,55
2019-06-13T06:44:21.849Z,55
2019-06-13T06:45:20.562Z,55
2019-06-13T06:46:22.020Z,50
2019-06-13T06:47:19.757Z,50
2019-06-13T06:48:20.426Z,50
2019-06-13T06:49:19.577Z,50
2019-06-13T06:50:19.993Z,55
2019-06-13T06:51:22.325Z,60
2019-06-13T06:52:19.434Z,70
2019-06-13T06:53:22.504Z,75
2019-06-13T06:54:19.637Z,80
2019-06-13T06:55:22.054Z,90
2019-06-13T06:56:19.156Z,100
2019-06-13T06:57:19.991Z,120
2019-06-13T06:58:22.323Z,135
2019-06-13T06:59:19.535Z,150
2019-06-13T07:00:19.446Z,160
2019-06-13T07:01:22.258Z,160
2019-06-13T07:02:22.149Z,150
2019-06-13T07:03:23.500Z,130
2019-06-13T07:04:23.781Z,110
2019-06-13T07:05:21.598Z,90
2019-06-13T07:06:21.961Z,80
2019-06-13T07:07:20.286Z,70
2019-06-13T07:08:22.190Z,60
2019-06-13T07:09:22.781Z,55
2019-06-13T07:10:29.272Z,50
2019-06-13T07:11:21.754Z,50
2019-06-13T07:12:19.878Z,50
2019-06-13T07:13:21.914Z,50
2019-06-13T07:14:35.064Z,50
2019-06-13T07:15:22.090Z,50
2019-06-13T07:16:22.919Z,50
2019-06-13T07:17:22.827Z,50
2019-06-13T07:18:19.875Z,50
2019-06-13T07:19:19.833Z,50
2019-06-13T07:20:22.151Z,55
2019-06-13T07:21:22.545Z,55
2019-06-13T07:22:22.573Z,60
2019-06-13T07:23:22.485Z,60
2019-06-13T07:24:22.520Z,60
2019-06-13T07:25:19.990Z,60
2019-06-13T07:26:21.874Z,55
2019-06-13T07:27:22.238Z,55
2019-06-13T07:28:22.593Z,60
2019-06-13T07:29:20.027Z,60
2019-06-13T07:30:25.106Z,60
2019-06-13T07:31:21.913Z,65
2019-06-13T07:32:23.609Z,65
2019-06-13T07:33:20.064Z,70
2019-06-13T07:34:22.846Z,70
2019-06-13T07:35:20.518Z,75
2019-06-13T07:36:22.437Z,80
2019-06-13T07:37:20.285Z,80
2019-06-13T07:38:19.756Z,80
2019-06-13T07:39:22.631Z,85
2019-06-13T07:40:42.466Z,90
2019-06-13T07:41:21.654Z,95
2019-06-13T07:42:20.157Z,95
2019-06-13T07:43:20.218Z,95
2019-06-13T07:44:24.883Z,90
2019-06-13T07:45:22.276Z,90
2019-06-13T07:46:22.064Z,95
2019-06-13T07:47:23.023Z,95
2019-06-13T07:48:24.832Z,95
2019-06-13T07:49:21.596Z,100
2019-06-13T07:50:24.033Z,105
2019-06-13T07:51:22.456Z,110
2019-06-13T07:52:22.880Z,120
2019-06-13T07:53:22.080Z,125
2019-06-13T07:54:21.587Z,130
2019-06-13T07:55:23.594Z,145
2019-06-13T07:56:19.879Z,165
2019-06-13T07:57:19.887Z,185
2019-06-13T07:58:24.075Z,215
2019-06-13T07:59:20.072Z,245
2019-06-13T08:00:20.050Z,295
2019-06-13T08:01:23.624Z,355
2019-06-13T08:02:22.654Z,375
2019-06-13T08:03:21.782Z,460
2019-06-13T08:04:22.514Z,855
2019-06-13T08:05:22.650Z,565
2019-06-13T08:06:49.675Z,615
2019-06-13T08:07:19.885Z,820
2019-06-13T08:08:21.870Z,790
2019-06-13T08:09:23.000Z,730
2019-06-13T08:10:40.145Z,1085
2019-06-13T08:11:23.866Z,775
2019-06-13T08:12:21.834Z,1595
2019-06-13T08:13:23.720Z,1955
2019-06-13T08:14:21.937Z,1960
2019-06-13T08:15:23.038Z,1925
2019-06-13T08:16:44.062Z,1920
2019-06-13T08:17:22.963Z,1895
2019-06-13T08:18:21.737Z,1895
2019-06-13T08:19:22.032Z,1905
2019-06-13T08:20:21.787Z,1895
2019-06-13T08:21:23.207Z,1905
2019-06-13T08:22:22.219Z,1900
2019-06-13T08:23:31.922Z,1915
2019-06-13T08:24:22.451Z,1900
2019-06-13T08:25:22.820Z,1880
2019-06-13T08:26:30.740Z,1850
2019-06-13T08:27:21.620Z,1835
2019-06-13T08:28:24.201Z,1805
2019-06-13T08:29:22.013Z,1810
2019-06-13T08:30:22.132Z,1785
2019-06-13T08:31:22.781Z,1790
2019-06-13T08:32:22.620Z,1815
2019-06-13T08:33:23.119Z,1800
2019-06-13T08:34:22.718Z,1795
2019-06-13T08:35:22.391Z,1775
2019-06-13T08:36:23.932Z,1780
2019-06-13T08:37:25.041Z,1755
2019-06-13T08:38:23.035Z,1795
2019-06-13T08:39:22.210Z,1815
2019-06-13T08:40:22.461Z,1800
2019-06-13T08:41:34.390Z,1795
2019-06-13T08:42:22.080Z,1795
2019-06-13T08:43:30.084Z,1780
2019-06-13T08:44:22.707Z,1780
2019-06-13T08:45:22.401Z,1780
2019-06-13T08:46:22.946Z,1780
2019-06-13T08:47:22.435Z,1790
2019-06-13T08:48:22.732Z,1805
2019-06-13T08:49:29.593Z,1815
2019-06-13T08:50:23.749Z,1815
2019-06-13T08:51:24.441Z,1830
2019-06-13T08:52:22.195Z,1770
2019-06-13T08:53:24.006Z,1585
2019-06-13T08:54:22.790Z,1875
2019-06-13T08:55:24.106Z,820
2019-06-13T08:56:23.339Z,1860
2019-06-13T08:57:24.244Z,1955
2019-06-13T08:58:23.917Z,1415
2019-06-13T08:59:24.337Z,2045
2019-06-13T09:00:24.542Z,1920
2019-06-13T09:01:25.164Z,1430
2019-06-13T09:02:24.747Z,1875
2019-06-13T09:03:24.492Z,1845
2019-06-13T09:04:24.799Z,1845
2019-06-13T09:05:25.621Z,1860
2019-06-13T09:06:34.931Z,1865
2019-06-13T09:07:24.338Z,1870
2019-06-13T09:08:36.495Z,1850
2019-06-13T09:09:24.679Z,1895
2019-06-13T09:10:24.525Z,1840
2019-06-13T09:11:51.797Z,1850
2019-06-13T09:12:24.059Z,1855
2019-06-13T09:13:24.497Z,1875
2019-06-13T09:14:25.159Z,1900
2019-06-13T09:15:24.075Z,1900
2019-06-13T09:16:24.092Z,1905
2019-06-13T09:17:25.310Z,1900
2019-06-13T09:18:24.684Z,1920
2019-06-13T09:19:27.092Z,440
2019-06-13T09:20:29.538Z,395
2019-06-13T09:21:25.654Z,485
2019-06-13T09:22:25.750Z,600
2019-06-13T09:23:25.432Z,615
2019-06-13T09:24:26.055Z,1470
2019-06-13T09:25:26.300Z,1870
2019-06-13T09:26:24.275Z,1870
2019-06-13T09:27:24.778Z,835
2019-06-13T09:28:25.078Z,985
2019-06-13T09:29:24.434Z,1920
2019-06-13T09:30:25.289Z,1985
2019-06-13T09:31:24.823Z,1990
2019-06-13T09:32:31.392Z,1945
2019-06-13T09:33:36.134Z,2000
2019-06-13T09:34:26.375Z,1995
2019-06-13T09:35:26.665Z,1985
2019-06-13T09:36:27.122Z,1975
2019-06-13T09:37:25.239Z,1915
2019-06-13T09:38:26.297Z,1910
2019-06-13T09:39:40.607Z,1905
2019-06-13T09:40:30.344Z,1945
2019-06-13T09:41:45.478Z,1240
2019-06-13T09:42:42.750Z,1030
2019-06-13T09:43:32.432Z,1455
2019-06-13T09:44:34.474Z,1585
2019-06-13T09:45:42.902Z,1945
2019-06-13T09:46:32.868Z,1930
2019-06-13T09:47:34.063Z,1935
2019-06-13T09:48:32.379Z,1905
2019-06-13T09:49:33.679Z,1910
